sensor_id;sensor_type;location;lat;lon;timestamp;P1;durP1;ratioP1;P2;durP2;ratioP2
15699;SDS011;7950;42.744;23.174;2024-03-17T00:01:03;21.50;;;13.30;;
15699;SDS011;7950;42.744;23.174;2024-03-17T00:03:32;20.27;;;13.83;;
15699;SDS011;7950;42.744;23.174;2024-03-17T00:05:59;18.97;;;13.77;;
15699;SDS011;7950;42.744;23.174;2024-03-17T00:08:29;20.40;;;13.63;;
15699;SDS011;7950;42.744;23.174;2024-03-17T00:10:56;21.20;;;14.47;;
15699;SDS011;7950;42.744;23.174;2024-03-17T00:13:23;19.17;;;13.60;;
15699;SDS011;7950;42.744;23.174;2024-03-17T00:15:51;18.03;;;12.87;;
15699;SDS011;7950;42.744;23.174;2024-03-17T00:18:18;25.13;;;14.13;;
15699;SDS011;7950;42.744;23.174;2024-03-17T00:20:45;20.33;;;13.20;;
15699;SDS011;7950;42.744;23.174;2024-03-17T00:23:12;20.10;;;13.80;;
15699;SDS011;7950;42.744;23.174;2024-03-17T00:25:41;19.13;;;13.63;;
15699;SDS011;7950;42.744;23.174;2024-03-17T00:28:07;19.37;;;13.53;;
15699;SDS011;7950;42.744;23.174;2024-03-17T00:30:37;22.33;;;14.27;;
15699;SDS011;7950;42.744;23.174;2024-03-17T00:33:03;21.20;;;14.50;;
15699;SDS011;7950;42.744;23.174;2024-03-17T00:35:31;20.07;;;14.63;;
15699;SDS011;7950;42.744;23.174;2024-03-17T00:37:59;19.40;;;13.23;;
15699;SDS011;7950;42.744;23.174;2024-03-17T00:40:29;19.47;;;13.80;;
15699;SDS011;7950;42.744;23.174;2024-03-17T00:42:57;22.97;;;14.43;;
15699;SDS011;7950;42.744;23.174;2024-03-17T00:45:25;21.23;;;14.37;;
15699;SDS011;7950;42.744;23.174;2024-03-17T00:47:52;22.63;;;14.83;;
15699;SDS011;7950;42.744;23.174;2024-03-17T00:50:19;21.90;;;14.77;;
15699;SDS011;7950;42.744;23.174;2024-03-17T00:52:46;20.33;;;14.27;;
15699;SDS011;7950;42.744;23.174;2024-03-17T00:55:14;21.83;;;15.47;;
15699;SDS011;7950;42.744;23.174;2024-03-17T00:57:40;20.63;;;13.20;;
15699;SDS011;7950;42.744;23.174;2024-03-17T01:00:10;21.00;;;14.67;;
15699;SDS011;7950;42.744;23.174;2024-03-17T01:02:38;22.47;;;14.73;;
15699;SDS011;7950;42.744;23.174;2024-03-17T01:05:06;19.03;;;13.83;;
15699;SDS011;7950;42.744;23.174;2024-03-17T01:07:34;21.70;;;14.67;;
15699;SDS011;7950;42.744;23.174;2024-03-17T01:10:02;21.53;;;14.37;;
15699;SDS011;7950;42.744;23.174;2024-03-17T01:12:29;18.73;;;13.90;;
15699;SDS011;7950;42.744;23.174;2024-03-17T01:14:57;23.00;;;14.40;;
15699;SDS011;7950;42.744;23.174;2024-03-17T01:17:25;23.67;;;15.63;;
15699;SDS011;7950;42.744;23.174;2024-03-17T01:19:52;21.83;;;14.77;;
15699;SDS011;7950;42.744;23.174;2024-03-17T01:22:20;22.73;;;15.50;;
15699;SDS011;7950;42.744;23.174;2024-03-17T01:24:46;22.10;;;15.17;;
15699;SDS011;7950;42.744;23.174;2024-03-17T01:27:14;21.60;;;14.63;;
15699;SDS011;7950;42.744;23.174;2024-03-17T01:29:41;23.60;;;15.33;;
15699;SDS011;7950;42.744;23.174;2024-03-17T01:32:09;21.30;;;14.60;;
15699;SDS011;7950;42.744;23.174;2024-03-17T01:34:38;23.83;;;14.97;;
15699;SDS011;7950;42.744;23.174;2024-03-17T01:37:06;20.80;;;14.30;;
15699;SDS011;7950;42.744;23.174;2024-03-17T01:39:33;21.93;;;15.40;;
15699;SDS011;7950;42.744;23.174;2024-03-17T01:42:00;21.27;;;14.67;;
15699;SDS011;7950;42.744;23.174;2024-03-17T01:44:28;25.37;;;16.13;;
15699;SDS011;7950;42.744;23.174;2024-03-17T01:46:56;28.73;;;15.80;;
15699;SDS011;7950;42.744;23.174;2024-03-17T01:49:23;23.00;;;15.57;;
15699;SDS011;7950;42.744;23.174;2024-03-17T01:51:55;24.40;;;15.03;;
15699;SDS011;7950;42.744;23.174;2024-03-17T01:54:22;23.43;;;15.13;;
15699;SDS011;7950;42.744;23.174;2024-03-17T01:56:50;22.37;;;15.20;;
15699;SDS011;7950;42.744;23.174;2024-03-17T01:59:16;22.70;;;15.43;;
15699;SDS011;7950;42.744;23.174;2024-03-17T02:01:44;22.10;;;14.73;;
15699;SDS011;7950;42.744;23.174;2024-03-17T02:04:11;22.83;;;16.07;;
15699;SDS011;7950;42.744;23.174;2024-03-17T02:06:38;23.47;;;14.73;;
15699;SDS011;7950;42.744;23.174;2024-03-17T02:09:07;20.07;;;14.00;;
15699;SDS011;7950;42.744;23.174;2024-03-17T02:11:35;24.63;;;15.40;;
15699;SDS011;7950;42.744;23.174;2024-03-17T02:14:01;22.13;;;15.53;;
15699;SDS011;7950;42.744;23.174;2024-03-17T02:16:29;25.37;;;15.60;;
15699;SDS011;7950;42.744;23.174;2024-03-17T02:18:56;22.47;;;14.90;;
15699;SDS011;7950;42.744;23.174;2024-03-17T02:21:24;23.93;;;14.97;;
15699;SDS011;7950;42.744;23.174;2024-03-17T02:23:54;23.20;;;15.43;;
15699;SDS011;7950;42.744;23.174;2024-03-17T02:26:22;22.93;;;15.13;;
15699;SDS011;7950;42.744;23.174;2024-03-17T02:28:51;23.33;;;14.80;;
15699;SDS011;7950;42.744;23.174;2024-03-17T02:31:19;25.40;;;15.43;;
15699;SDS011;7950;42.744;23.174;2024-03-17T02:33:48;21.27;;;15.03;;
15699;SDS011;7950;42.744;23.174;2024-03-17T02:36:15;23.23;;;15.30;;
15699;SDS011;7950;42.744;23.174;2024-03-17T02:38:43;25.07;;;15.97;;
15699;SDS011;7950;42.744;23.174;2024-03-17T02:41:31;25.30;;;14.87;;
15699;SDS011;7950;42.744;23.174;2024-03-17T02:43:59;23.87;;;15.03;;
15699;SDS011;7950;42.744;23.174;2024-03-17T02:46:27;22.97;;;15.00;;
15699;SDS011;7950;42.744;23.174;2024-03-17T02:48:54;19.43;;;13.93;;
15699;SDS011;7950;42.744;23.174;2024-03-17T02:51:22;22.73;;;14.60;;
15699;SDS011;7950;42.744;23.174;2024-03-17T02:53:49;21.93;;;15.20;;
15699;SDS011;7950;42.744;23.174;2024-03-17T02:56:17;21.53;;;14.27;;
15699;SDS011;7950;42.744;23.174;2024-03-17T02:58:47;21.33;;;14.43;;
15699;SDS011;7950;42.744;23.174;2024-03-17T03:01:16;21.40;;;13.83;;
15699;SDS011;7950;42.744;23.174;2024-03-17T03:03:44;21.67;;;14.43;;
15699;SDS011;7950;42.744;23.174;2024-03-17T03:06:12;23.33;;;16.23;;
15699;SDS011;7950;42.744;23.174;2024-03-17T03:08:43;24.43;;;15.13;;
15699;SDS011;7950;42.744;23.174;2024-03-17T03:11:13;28.17;;;16.13;;
15699;SDS011;7950;42.744;23.174;2024-03-17T03:13:43;22.83;;;15.30;;
15699;SDS011;7950;42.744;23.174;2024-03-17T03:16:13;25.47;;;15.30;;
15699;SDS011;7950;42.744;23.174;2024-03-17T03:18:41;23.63;;;15.70;;
15699;SDS011;7950;42.744;23.174;2024-03-17T03:21:10;21.67;;;14.87;;
15699;SDS011;7950;42.744;23.174;2024-03-17T03:23:38;22.73;;;15.40;;
15699;SDS011;7950;42.744;23.174;2024-03-17T03:26:06;24.30;;;16.10;;
15699;SDS011;7950;42.744;23.174;2024-03-17T03:28:35;24.63;;;15.40;;
15699;SDS011;7950;42.744;23.174;2024-03-17T03:31:04;24.70;;;15.33;;
15699;SDS011;7950;42.744;23.174;2024-03-17T03:33:34;21.87;;;14.70;;
15699;SDS011;7950;42.744;23.174;2024-03-17T03:36:06;22.37;;;14.47;;
15699;SDS011;7950;42.744;23.174;2024-03-17T03:38:35;22.97;;;15.23;;
15699;SDS011;7950;42.744;23.174;2024-03-17T03:41:07;25.13;;;15.73;;
15699;SDS011;7950;42.744;23.174;2024-03-17T03:43:36;31.17;;;14.90;;
15699;SDS011;7950;42.744;23.174;2024-03-17T03:46:03;21.73;;;14.90;;
15699;SDS011;7950;42.744;23.174;2024-03-17T03:48:33;25.50;;;16.17;;
15699;SDS011;7950;42.744;23.174;2024-03-17T03:51:04;26.40;;;15.20;;
15699;SDS011;7950;42.744;23.174;2024-03-17T03:53:32;23.13;;;15.20;;
15699;SDS011;7950;42.744;23.174;2024-03-17T03:56:00;24.27;;;16.17;;
15699;SDS011;7950;42.744;23.174;2024-03-17T03:58:32;22.20;;;14.83;;
15699;SDS011;7950;42.744;23.174;2024-03-17T04:01:00;21.63;;;15.17;;
15699;SDS011;7950;42.744;23.174;2024-03-17T04:03:31;24.50;;;15.77;;
15699;SDS011;7950;42.744;23.174;2024-03-17T04:06:02;25.40;;;15.20;;
15699;SDS011;7950;42.744;23.174;2024-03-17T04:08:31;24.80;;;15.87;;
15699;SDS011;7950;42.744;23.174;2024-03-17T04:11:00;24.80;;;15.07;;
15699;SDS011;7950;42.744;23.174;2024-03-17T04:13:29;28.70;;;15.80;;
15699;SDS011;7950;42.744;23.174;2024-03-17T04:15:58;26.43;;;15.40;;
15699;SDS011;7950;42.744;23.174;2024-03-17T04:18:26;23.70;;;15.57;;
15699;SDS011;7950;42.744;23.174;2024-03-17T04:20:57;26.50;;;16.83;;
15699;SDS011;7950;42.744;23.174;2024-03-17T04:23:28;24.87;;;16.17;;
15699;SDS011;7950;42.744;23.174;2024-03-17T04:25:57;23.03;;;15.63;;
15699;SDS011;7950;42.744;23.174;2024-03-17T04:28:27;24.00;;;15.73;;
15699;SDS011;7950;42.744;23.174;2024-03-17T04:31:01;21.87;;;14.57;;
15699;SDS011;7950;42.744;23.174;2024-03-17T04:33:31;23.67;;;15.20;;
15699;SDS011;7950;42.744;23.174;2024-03-17T04:36:00;26.87;;;15.37;;
15699;SDS011;7950;42.744;23.174;2024-03-17T04:38:28;22.53;;;15.13;;
15699;SDS011;7950;42.744;23.174;2024-03-17T04:40:56;24.23;;;15.77;;
15699;SDS011;7950;42.744;23.174;2024-03-17T04:43:30;24.40;;;15.97;;
15699;SDS011;7950;42.744;23.174;2024-03-17T04:45:59;27.20;;;17.77;;
15699;SDS011;7950;42.744;23.174;2024-03-17T04:48:29;27.60;;;16.10;;
15699;SDS011;7950;42.744;23.174;2024-03-17T04:50:57;27.10;;;16.10;;
15699;SDS011;7950;42.744;23.174;2024-03-17T04:53:27;23.53;;;15.20;;
15699;SDS011;7950;42.744;23.174;2024-03-17T04:56:01;23.70;;;15.40;;
15699;SDS011;7950;42.744;23.174;2024-03-17T04:58:31;22.27;;;15.33;;
15699;SDS011;7950;42.744;23.174;2024-03-17T05:01:03;26.30;;;15.33;;
15699;SDS011;7950;42.744;23.174;2024-03-17T05:03:33;22.73;;;14.63;;
15699;SDS011;7950;42.744;23.174;2024-03-17T05:06:01;21.47;;;14.13;;
15699;SDS011;7950;42.744;23.174;2024-03-17T05:08:32;23.53;;;14.67;;
15699;SDS011;7950;42.744;23.174;2024-03-17T05:11:00;21.27;;;15.57;;
15699;SDS011;7950;42.744;23.174;2024-03-17T05:13:30;24.40;;;14.30;;
15699;SDS011;7950;42.744;23.174;2024-03-17T05:15:59;25.40;;;14.83;;
15699;SDS011;7950;42.744;23.174;2024-03-17T05:18:27;20.60;;;13.77;;
15699;SDS011;7950;42.744;23.174;2024-03-17T05:20:58;22.43;;;13.57;;
15699;SDS011;7950;42.744;23.174;2024-03-17T05:23:27;23.67;;;14.53;;
15699;SDS011;7950;42.744;23.174;2024-03-17T05:25:57;21.63;;;14.30;;
15699;SDS011;7950;42.744;23.174;2024-03-17T05:28:26;23.00;;;14.03;;
15699;SDS011;7950;42.744;23.174;2024-03-17T05:30:55;22.17;;;14.20;;
15699;SDS011;7950;42.744;23.174;2024-03-17T05:33:24;20.00;;;13.03;;
15699;SDS011;7950;42.744;23.174;2024-03-17T05:35:53;21.10;;;14.50;;
15699;SDS011;7950;42.744;23.174;2024-03-17T05:38:22;24.17;;;14.80;;
15699;SDS011;7950;42.744;23.174;2024-03-17T05:40:54;19.77;;;12.23;;
15699;SDS011;7950;42.744;23.174;2024-03-17T05:43:25;21.60;;;14.37;;
15699;SDS011;7950;42.744;23.174;2024-03-17T05:45:56;21.53;;;14.03;;
15699;SDS011;7950;42.744;23.174;2024-03-17T05:48:25;19.73;;;13.73;;
15699;SDS011;7950;42.744;23.174;2024-03-17T05:50:53;22.70;;;13.67;;
15699;SDS011;7950;42.744;23.174;2024-03-17T05:53:21;21.43;;;13.37;;
15699;SDS011;7950;42.744;23.174;2024-03-17T05:55:50;21.10;;;13.60;;
15699;SDS011;7950;42.744;23.174;2024-03-17T05:58:19;21.37;;;12.77;;
15699;SDS011;7950;42.744;23.174;2024-03-17T06:00:48;20.03;;;12.80;;
15699;SDS011;7950;42.744;23.174;2024-03-17T06:03:15;21.37;;;14.10;;
15699;SDS011;7950;42.744;23.174;2024-03-17T06:05:44;21.40;;;14.03;;
15699;SDS011;7950;42.744;23.174;2024-03-17T06:08:12;18.13;;;12.70;;
15699;SDS011;7950;42.744;23.174;2024-03-17T06:10:42;20.47;;;13.53;;
15699;SDS011;7950;42.744;23.174;2024-03-17T06:13:12;21.70;;;14.13;;
15699;SDS011;7950;42.744;23.174;2024-03-17T06:15:44;17.83;;;11.63;;
15699;SDS011;7950;42.744;23.174;2024-03-17T06:18:12;19.23;;;13.20;;
15699;SDS011;7950;42.744;23.174;2024-03-17T06:20:43;20.03;;;13.47;;
15699;SDS011;7950;42.744;23.174;2024-03-17T06:23:12;20.87;;;14.13;;
15699;SDS011;7950;42.744;23.174;2024-03-17T06:25:41;20.00;;;13.93;;
15699;SDS011;7950;42.744;23.174;2024-03-17T06:28:10;22.17;;;15.70;;
15699;SDS011;7950;42.744;23.174;2024-03-17T06:30:40;24.33;;;16.33;;
15699;SDS011;7950;42.744;23.174;2024-03-17T06:33:10;30.03;;;20.87;;
15699;SDS011;7950;42.744;23.174;2024-03-17T06:35:39;24.17;;;17.50;;
15699;SDS011;7950;42.744;23.174;2024-03-17T06:38:07;25.53;;;17.43;;
15699;SDS011;7950;42.744;23.174;2024-03-17T06:40:36;29.40;;;18.13;;
15699;SDS011;7950;42.744;23.174;2024-03-17T06:43:04;29.60;;;20.33;;
15699;SDS011;7950;42.744;23.174;2024-03-17T06:45:33;30.37;;;19.33;;
15699;SDS011;7950;42.744;23.174;2024-03-17T06:48:01;31.30;;;20.53;;
15699;SDS011;7950;42.744;23.174;2024-03-17T06:50:30;27.93;;;18.93;;
15699;SDS011;7950;42.744;23.174;2024-03-17T06:52:58;25.27;;;18.23;;
15699;SDS011;7950;42.744;23.174;2024-03-17T06:55:25;25.77;;;17.87;;
15699;SDS011;7950;42.744;23.174;2024-03-17T06:57:53;28.40;;;18.33;;
15699;SDS011;7950;42.744;23.174;2024-03-17T07:00:21;26.13;;;18.80;;
15699;SDS011;7950;42.744;23.174;2024-03-17T07:02:50;25.37;;;18.40;;
15699;SDS011;7950;42.744;23.174;2024-03-17T07:05:18;23.27;;;17.27;;
15699;SDS011;7950;42.744;23.174;2024-03-17T07:07:47;23.53;;;16.83;;
15699;SDS011;7950;42.744;23.174;2024-03-17T07:10:14;22.40;;;15.73;;
15699;SDS011;7950;42.744;23.174;2024-03-17T07:12:42;20.67;;;14.60;;
15699;SDS011;7950;42.744;23.174;2024-03-17T07:15:09;21.73;;;15.70;;
15699;SDS011;7950;42.744;23.174;2024-03-17T07:17:37;24.30;;;15.27;;
15699;SDS011;7950;42.744;23.174;2024-03-17T07:20:05;21.80;;;15.47;;
15699;SDS011;7950;42.744;23.174;2024-03-17T07:22:34;22.67;;;16.93;;
15699;SDS011;7950;42.744;23.174;2024-03-17T07:25:03;22.53;;;16.27;;
15699;SDS011;7950;42.744;23.174;2024-03-17T07:27:31;21.93;;;16.17;;
15699;SDS011;7950;42.744;23.174;2024-03-17T07:29:59;23.97;;;16.73;;
15699;SDS011;7950;42.744;23.174;2024-03-17T07:32:27;20.83;;;15.37;;
15699;SDS011;7950;42.744;23.174;2024-03-17T07:34:54;20.07;;;15.30;;
15699;SDS011;7950;42.744;23.174;2024-03-17T07:37:22;22.63;;;15.47;;
15699;SDS011;7950;42.744;23.174;2024-03-17T07:39:49;22.03;;;16.37;;
15699;SDS011;7950;42.744;23.174;2024-03-17T07:42:18;21.27;;;14.77;;
15699;SDS011;7950;42.744;23.174;2024-03-17T07:44:46;21.80;;;14.80;;
15699;SDS011;7950;42.744;23.174;2024-03-17T07:47:14;20.50;;;16.23;;
15699;SDS011;7950;42.744;23.174;2024-03-17T07:49:41;24.93;;;14.60;;
15699;SDS011;7950;42.744;23.174;2024-03-17T07:52:13;23.63;;;15.20;;
15699;SDS011;7950;42.744;23.174;2024-03-17T07:54:42;20.87;;;15.13;;
15699;SDS011;7950;42.744;23.174;2024-03-17T07:57:12;22.23;;;14.97;;
15699;SDS011;7950;42.744;23.174;2024-03-17T07:59:41;26.53;;;18.37;;
15699;SDS011;7950;42.744;23.174;2024-03-17T08:02:09;20.90;;;15.63;;
15699;SDS011;7950;42.744;23.174;2024-03-17T08:04:36;25.57;;;16.70;;
15699;SDS011;7950;42.744;23.174;2024-03-17T08:07:05;21.33;;;15.40;;
15699;SDS011;7950;42.744;23.174;2024-03-17T08:09:32;21.03;;;15.60;;
15699;SDS011;7950;42.744;23.174;2024-03-17T08:12:00;24.23;;;14.53;;
15699;SDS011;7950;42.744;23.174;2024-03-17T08:14:29;23.57;;;15.07;;
15699;SDS011;7950;42.744;23.174;2024-03-17T08:16:58;17.73;;;13.60;;
15699;SDS011;7950;42.744;23.174;2024-03-17T08:19:26;21.30;;;14.30;;
15699;SDS011;7950;42.744;23.174;2024-03-17T08:21:53;20.47;;;14.30;;
15699;SDS011;7950;42.744;23.174;2024-03-17T08:24:21;15.53;;;12.40;;
15699;SDS011;7950;42.744;23.174;2024-03-17T08:26:48;13.80;;;10.97;;
15699;SDS011;7950;42.744;23.174;2024-03-17T08:29:16;18.13;;;13.60;;
15699;SDS011;7950;42.744;23.174;2024-03-17T08:31:44;16.07;;;12.13;;
15699;SDS011;7950;42.744;23.174;2024-03-17T08:34:13;14.97;;;10.67;;
15699;SDS011;7950;42.744;23.174;2024-03-17T08:36:40;16.10;;;11.63;;
15699;SDS011;7950;42.744;23.174;2024-03-17T08:39:08;12.93;;;9.53;;
15699;SDS011;7950;42.744;23.174;2024-03-17T08:41:36;16.57;;;10.03;;
15699;SDS011;7950;42.744;23.174;2024-03-17T08:44:04;12.57;;;9.47;;
15699;SDS011;7950;42.744;23.174;2024-03-17T08:46:33;11.00;;;8.90;;
15699;SDS011;7950;42.744;23.174;2024-03-17T08:49:00;10.93;;;9.57;;
15699;SDS011;7950;42.744;23.174;2024-03-17T08:51:29;10.87;;;8.73;;
15699;SDS011;7950;42.744;23.174;2024-03-17T08:53:57;11.80;;;9.03;;
15699;SDS011;7950;42.744;23.174;2024-03-17T08:56:25;10.90;;;8.87;;
15699;SDS011;7950;42.744;23.174;2024-03-17T08:58:52;11.97;;;9.33;;
15699;SDS011;7950;42.744;23.174;2024-03-17T09:01:20;11.67;;;9.30;;
15699;SDS011;7950;42.744;23.174;2024-03-17T09:03:49;12.87;;;10.20;;
15699;SDS011;7950;42.744;23.174;2024-03-17T09:06:17;10.87;;;8.57;;
15699;SDS011;7950;42.744;23.174;2024-03-17T09:08:48;12.70;;;9.77;;
15699;SDS011;7950;42.744;23.174;2024-03-17T09:11:17;11.90;;;8.83;;
15699;SDS011;7950;42.744;23.174;2024-03-17T09:13:50;10.13;;;8.73;;
15699;SDS011;7950;42.744;23.174;2024-03-17T09:16:17;11.23;;;8.47;;
15699;SDS011;7950;42.744;23.174;2024-03-17T09:18:47;11.20;;;8.50;;
15699;SDS011;7950;42.744;23.174;2024-03-17T09:21:15;11.00;;;8.70;;
15699;SDS011;7950;42.744;23.174;2024-03-17T09:23:43;11.47;;;8.43;;
15699;SDS011;7950;42.744;23.174;2024-03-17T09:26:12;10.33;;;8.33;;
15699;SDS011;7950;42.744;23.174;2024-03-17T09:28:41;13.00;;;8.07;;
15699;SDS011;7950;42.744;23.174;2024-03-17T09:31:09;11.37;;;7.63;;
15699;SDS011;7950;42.744;23.174;2024-03-17T09:33:38;8.63;;;7.50;;
15699;SDS011;7950;42.744;23.174;2024-03-17T09:36:06;8.63;;;7.17;;
15699;SDS011;7950;42.744;23.174;2024-03-17T09:38:36;8.67;;;7.03;;
15699;SDS011;7950;42.744;23.174;2024-03-17T09:41:05;12.53;;;8.20;;
15699;SDS011;7950;42.744;23.174;2024-03-17T09:43:35;9.10;;;7.03;;
15699;SDS011;7950;42.744;23.174;2024-03-17T09:46:03;6.60;;;5.53;;
15699;SDS011;7950;42.744;23.174;2024-03-17T09:48:32;8.90;;;7.20;;
15699;SDS011;7950;42.744;23.174;2024-03-17T09:51:02;8.30;;;6.70;;
15699;SDS011;7950;42.744;23.174;2024-03-17T09:53:31;9.47;;;7.73;;
15699;SDS011;7950;42.744;23.174;2024-03-17T09:56:00;8.73;;;6.63;;
15699;SDS011;7950;42.744;23.174;2024-03-17T09:58:38;9.87;;;7.00;;
15699;SDS011;7950;42.744;23.174;2024-03-17T10:01:05;7.87;;;6.47;;
15699;SDS011;7950;42.744;23.174;2024-03-17T10:03:39;7.57;;;4.90;;
15699;SDS011;7950;42.744;23.174;2024-03-17T10:06:10;5.63;;;5.03;;
15699;SDS011;7950;42.744;23.174;2024-03-17T10:08:40;7.23;;;6.23;;
15699;SDS011;7950;42.744;23.174;2024-03-17T10:11:13;7.77;;;6.23;;
15699;SDS011;7950;42.744;23.174;2024-03-17T10:13:44;6.97;;;6.27;;
15699;SDS011;7950;42.744;23.174;2024-03-17T10:16:25;10.30;;;6.40;;
15699;SDS011;7950;42.744;23.174;2024-03-17T10:19:05;10.57;;;6.33;;
15699;SDS011;7950;42.744;23.174;2024-03-17T10:21:36;6.70;;;5.50;;
15699;SDS011;7950;42.744;23.174;2024-03-17T10:24:05;7.03;;;5.77;;
15699;SDS011;7950;42.744;23.174;2024-03-17T10:26:36;8.17;;;5.93;;
15699;SDS011;7950;42.744;23.174;2024-03-17T10:29:23;6.43;;;5.40;;
15699;SDS011;7950;42.744;23.174;2024-03-17T10:31:53;6.60;;;5.60;;
15699;SDS011;7950;42.744;23.174;2024-03-17T10:34:22;6.83;;;4.90;;
15699;SDS011;7950;42.744;23.174;2024-03-17T10:36:52;6.90;;;5.17;;
15699;SDS011;7950;42.744;23.174;2024-03-17T10:39:34;6.33;;;5.20;;
15699;SDS011;7950;42.744;23.174;2024-03-17T10:42:02;7.00;;;5.30;;
15699;SDS011;7950;42.744;23.174;2024-03-17T10:44:34;4.47;;;4.00;;
15699;SDS011;7950;42.744;23.174;2024-03-17T10:47:04;4.87;;;3.60;;
15699;SDS011;7950;42.744;23.174;2024-03-17T10:49:36;4.70;;;4.20;;
15699;SDS011;7950;42.744;23.174;2024-03-17T10:52:06;5.23;;;4.70;;
15699;SDS011;7950;42.744;23.174;2024-03-17T10:54:43;7.93;;;5.93;;
15699;SDS011;7950;42.744;23.174;2024-03-17T10:57:18;5.20;;;4.70;;
15699;SDS011;7950;42.744;23.174;2024-03-17T10:59:58;5.27;;;4.50;;
15699;SDS011;7950;42.744;23.174;2024-03-17T11:02:29;5.13;;;4.30;;
15699;SDS011;7950;42.744;23.174;2024-03-17T11:04:58;4.90;;;4.40;;
15699;SDS011;7950;42.744;23.174;2024-03-17T11:07:29;3.70;;;3.40;;
15699;SDS011;7950;42.744;23.174;2024-03-17T11:10:02;6.83;;;4.30;;
15699;SDS011;7950;42.744;23.174;2024-03-17T11:12:40;5.20;;;4.70;;
15699;SDS011;7950;42.744;23.174;2024-03-17T11:21:03;5.23;;;4.70;;
15699;SDS011;7950;42.744;23.174;2024-03-17T11:23:59;5.17;;;4.63;;
15699;SDS011;7950;42.744;23.174;2024-03-17T11:26:30;5.17;;;4.50;;
15699;SDS011;7950;42.744;23.174;2024-03-17T11:29:00;5.40;;;4.90;;
15699;SDS011;7950;42.744;23.174;2024-03-17T11:34:30;4.70;;;4.10;;
15699;SDS011;7950;42.744;23.174;2024-03-17T11:37:05;4.77;;;4.20;;
15699;SDS011;7950;42.744;23.174;2024-03-17T11:39:50;6.57;;;4.87;;
15699;SDS011;7950;42.744;23.174;2024-03-17T11:42:23;5.37;;;4.87;;
15699;SDS011;7950;42.744;23.174;2024-03-17T11:45:01;6.30;;;4.60;;
15699;SDS011;7950;42.744;23.174;2024-03-17T11:47:37;5.13;;;4.37;;
15699;SDS011;7950;42.744;23.174;2024-03-17T11:50:07;11.60;;;7.37;;
15699;SDS011;7950;42.744;23.174;2024-03-17T11:52:37;7.03;;;4.83;;
15699;SDS011;7950;42.744;23.174;2024-03-17T11:55:14;6.20;;;5.40;;
15699;SDS011;7950;42.744;23.174;2024-03-17T11:57:44;5.53;;;4.43;;
15699;SDS011;7950;42.744;23.174;2024-03-17T12:00:21;7.00;;;4.87;;
15699;SDS011;7950;42.744;23.174;2024-03-17T12:02:52;5.60;;;4.97;;
15699;SDS011;7950;42.744;23.174;2024-03-17T12:05:19;6.70;;;5.70;;
15699;SDS011;7950;42.744;23.174;2024-03-17T12:07:47;7.20;;;5.77;;
15699;SDS011;7950;42.744;23.174;2024-03-17T12:10:15;6.03;;;5.43;;
15699;SDS011;7950;42.744;23.174;2024-03-17T12:12:46;8.70;;;6.70;;
15699;SDS011;7950;42.744;23.174;2024-03-17T12:15:15;7.53;;;6.30;;
15699;SDS011;7950;42.744;23.174;2024-03-17T12:17:53;6.97;;;6.23;;
15699;SDS011;7950;42.744;23.174;2024-03-17T12:20:20;9.13;;;7.20;;
15699;SDS011;7950;42.744;23.174;2024-03-17T12:22:49;7.10;;;6.03;;
15699;SDS011;7950;42.744;23.174;2024-03-17T12:25:18;8.60;;;6.50;;
15699;SDS011;7950;42.744;23.174;2024-03-17T12:27:48;7.17;;;6.37;;
15699;SDS011;7950;42.744;23.174;2024-03-17T12:30:15;6.87;;;6.17;;
15699;SDS011;7950;42.744;23.174;2024-03-17T12:32:44;7.77;;;6.40;;
15699;SDS011;7950;42.744;23.174;2024-03-17T12:35:14;7.20;;;6.17;;
15699;SDS011;7950;42.744;23.174;2024-03-17T12:37:43;8.63;;;6.47;;
15699;SDS011;7950;42.744;23.174;2024-03-17T12:40:20;7.60;;;6.70;;
15699;SDS011;7950;42.744;23.174;2024-03-17T12:42:49;9.17;;;7.00;;
15699;SDS011;7950;42.744;23.174;2024-03-17T12:45:20;8.27;;;7.03;;
15699;SDS011;7950;42.744;23.174;2024-03-17T12:47:48;8.57;;;7.37;;
15699;SDS011;7950;42.744;23.174;2024-03-17T12:50:19;7.60;;;6.83;;
15699;SDS011;7950;42.744;23.174;2024-03-17T12:52:51;9.97;;;6.97;;
15699;SDS011;7950;42.744;23.174;2024-03-17T12:55:19;9.70;;;7.50;;
15699;SDS011;7950;42.744;23.174;2024-03-17T12:58:16;8.77;;;6.80;;
15699;SDS011;7950;42.744;23.174;2024-03-17T13:01:02;8.20;;;7.40;;
15699;SDS011;7950;42.744;23.174;2024-03-17T13:03:32;8.33;;;7.53;;
15699;SDS011;7950;42.744;23.174;2024-03-17T13:06:03;9.30;;;7.50;;
15699;SDS011;7950;42.744;23.174;2024-03-17T13:08:32;8.27;;;7.07;;
15699;SDS011;7950;42.744;23.174;2024-03-17T13:11:01;9.20;;;7.70;;
15699;SDS011;7950;42.744;23.174;2024-03-17T13:13:29;9.47;;;8.50;;
15699;SDS011;7950;42.744;23.174;2024-03-17T13:15:57;9.77;;;8.20;;
15699;SDS011;7950;42.744;23.174;2024-03-17T13:18:25;9.40;;;7.93;;
15699;SDS011;7950;42.744;23.174;2024-03-17T13:20:53;8.43;;;7.33;;
15699;SDS011;7950;42.744;23.174;2024-03-17T13:23:24;8.80;;;7.90;;
15699;SDS011;7950;42.744;23.174;2024-03-17T13:25:55;7.70;;;6.87;;
15699;SDS011;7950;42.744;23.174;2024-03-17T13:28:22;10.77;;;8.70;;
15699;SDS011;7950;42.744;23.174;2024-03-17T13:30:50;9.20;;;8.03;;
15699;SDS011;7950;42.744;23.174;2024-03-17T13:33:18;9.47;;;8.13;;
15699;SDS011;7950;42.744;23.174;2024-03-17T13:35:46;10.13;;;7.90;;
15699;SDS011;7950;42.744;23.174;2024-03-17T13:38:14;11.20;;;8.30;;
15699;SDS011;7950;42.744;23.174;2024-03-17T13:40:42;10.03;;;7.93;;
15699;SDS011;7950;42.744;23.174;2024-03-17T13:43:10;8.30;;;7.40;;
15699;SDS011;7950;42.744;23.174;2024-03-17T13:45:38;8.23;;;7.40;;
15699;SDS011;7950;42.744;23.174;2024-03-17T13:48:08;11.90;;;7.70;;
15699;SDS011;7950;42.744;23.174;2024-03-17T13:50:37;13.70;;;10.00;;
15699;SDS011;7950;42.744;23.174;2024-03-17T13:53:07;13.03;;;9.27;;
15699;SDS011;7950;42.744;23.174;2024-03-17T13:55:35;10.23;;;8.23;;
15699;SDS011;7950;42.744;23.174;2024-03-17T13:58:05;10.63;;;8.00;;
15699;SDS011;7950;42.744;23.174;2024-03-17T14:00:32;10.37;;;7.43;;
15699;SDS011;7950;42.744;23.174;2024-03-17T14:03:05;11.80;;;8.67;;
15699;SDS011;7950;42.744;23.174;2024-03-17T14:05:32;12.47;;;8.00;;
15699;SDS011;7950;42.744;23.174;2024-03-17T14:08:00;8.23;;;7.37;;
15699;SDS011;7950;42.744;23.174;2024-03-17T14:10:30;9.87;;;7.97;;
15699;SDS011;7950;42.744;23.174;2024-03-17T14:12:58;10.13;;;8.17;;
15699;SDS011;7950;42.744;23.174;2024-03-17T14:15:27;8.97;;;7.70;;
15699;SDS011;7950;42.744;23.174;2024-03-17T14:17:55;11.60;;;8.33;;
15699;SDS011;7950;42.744;23.174;2024-03-17T14:20:22;9.90;;;8.67;;
15699;SDS011;7950;42.744;23.174;2024-03-17T14:22:50;10.27;;;8.20;;
15699;SDS011;7950;42.744;23.174;2024-03-17T14:25:20;11.23;;;8.57;;
15699;SDS011;7950;42.744;23.174;2024-03-17T14:27:48;10.97;;;8.93;;
15699;SDS011;7950;42.744;23.174;2024-03-17T14:30:16;11.77;;;9.33;;
15699;SDS011;7950;42.744;23.174;2024-03-17T14:32:47;12.07;;;9.30;;
15699;SDS011;7950;42.744;23.174;2024-03-17T14:35:16;12.80;;;9.83;;
15699;SDS011;7950;42.744;23.174;2024-03-17T14:37:46;11.53;;;8.80;;
15699;SDS011;7950;42.744;23.174;2024-03-17T14:40:14;12.73;;;9.10;;
15699;SDS011;7950;42.744;23.174;2024-03-17T14:42:47;10.10;;;8.63;;
15699;SDS011;7950;42.744;23.174;2024-03-17T14:45:16;12.03;;;9.27;;
15699;SDS011;7950;42.744;23.174;2024-03-17T14:47:44;10.60;;;8.17;;
15699;SDS011;7950;42.744;23.174;2024-03-17T14:50:13;12.37;;;9.27;;
15699;SDS011;7950;42.744;23.174;2024-03-17T14:52:42;12.10;;;9.87;;